Aérodrome :







RETROUVEZ-NOUS SUR...

 
LOGIN :

S'inscrire | Disclaimer

   EN    FR    IT 

 









Légende :    VFR   VFR Marginal   IFR   IFR Intensif   IFR Très Intensif
Visi : 
Plafond : 
>= 8 km
>= 3000ft
5 à 8 km
1000 à 3000 ft
1500m à 5 km
500 à 1000 ft
800 à 1500m
200 à 500 ft
< 800m
< 200 ft
Symboles :   Orages  Brouillard  Fortes neiges  Fortes précipitations  Vent > 20 kt






- Altitude de l'aérodrome : 988 ft


KFVE - Northern Aroostook Regional

DERNIER METAR :
  • 241753Z AUTO 15013KT 10SM CLR 06/M04 A2979 RMK AO2 SLP095 T00561044 10056 21056 58028

METARs EXPIRÉS :
  • 241653Z AUTO 15012KT 10SM FEW060 03/M04 A2981 RMK AO2 SLP104 T00331044
  • 241553Z AUTO 14009KT 10SM OVC070 01/M06 A2985 RMK AO2 SLP119 T00061056

TAF KFVE
Valide du 24 à 18h jusqu'au 25 à 18h UTC


241726Z 2418/2518 16008KT P6SM SCT070
FM242200 21006KT P6SM SCT050
FM250200 24005KT P6SM SCT100
FM251000 VRB03KT 6SM BR SCT001
FM251500 00000KT P6SM SCT050



MET'MAP, la Météo Aéronautique d'un coup d'oeil ! - Copyright ORBIFLY Décembre 2007 - Disclaimer

ORBIFLY MET'MAP TEAM :

Programmation & Développement : Alexandra Zaïnal
Sur une idée originale de : Baudouin d'Aumeries
Assistance à la programmation : Marc-Olivier Méhu
Soutien technique & logistique : Manuel Goepfert

Contact : metmap@orbifly.com




SOURCES & CREDITS :

   NOAA